createdAt,value
2022-10-18T00:02:05.640Z,12.52
2022-10-18T00:04:29.332Z,16.63
2022-10-18T00:06:52.930Z,18.92
2022-10-18T00:09:16.703Z,10.60
2022-10-18T00:11:40.292Z,12.85
2022-10-18T00:14:05.431Z,15.50
2022-10-18T00:16:29.019Z,12.20
2022-10-18T00:18:52.670Z,11.82
2022-10-18T00:21:18.876Z,16.23
2022-10-18T00:23:42.900Z,10.48
2022-10-18T00:26:10.933Z,15.32
2022-10-18T00:28:36.036Z,12.45
2022-10-18T00:31:13.059Z,13.60
2022-10-18T00:33:36.707Z,14.07
2022-10-18T00:36:02.147Z,14.02
2022-10-18T00:38:25.867Z,12.48
2022-10-18T00:40:49.363Z,14.55
2022-10-18T00:43:17.523Z,10.93
2022-10-18T00:45:41.019Z,12.15
2022-10-18T00:48:06.692Z,17.48
2022-10-18T00:50:33.861Z,10.95
2022-10-18T00:53:02.319Z,14.27
2022-10-18T00:55:26.461Z,14.45
2022-10-18T00:57:51.345Z,14.80
2022-10-18T01:00:16.016Z,16.15
2022-10-18T01:02:42.021Z,17.48
2022-10-18T01:05:08.876Z,19.45
2022-10-18T01:07:54.457Z,22.35
2022-10-18T01:10:28.974Z,18.23
2022-10-18T01:13:09.337Z,25.98
2022-10-18T01:15:39.316Z,33.55
2022-10-18T01:18:10.910Z,26.58
2022-10-18T01:21:11.294Z,23.27
2022-10-18T01:24:23.882Z,24.85
2022-10-18T01:27:34.286Z,25.20
2022-10-18T01:30:20.814Z,27.60
2022-10-18T01:32:49.952Z,22.83
2022-10-18T01:35:19.351Z,27.20
2022-10-18T01:37:47.775Z,24.48
2022-10-18T01:40:16.020Z,25.35
2022-10-18T01:42:39.583Z,25.00
2022-10-18T01:45:05.479Z,27.60
2022-10-18T01:47:30.960Z,26.48
2022-10-18T01:50:00.590Z,26.05
2022-10-18T01:52:24.156Z,24.55
2022-10-18T01:54:50.072Z,25.63
2022-10-18T01:57:20.771Z,23.90
2022-10-18T01:59:56.268Z,24.88
2022-10-18T02:02:38.500Z,27.40
2022-10-18T02:05:09.323Z,26.00
2022-10-18T02:07:40.984Z,24.00
2022-10-18T02:10:11.928Z,26.08
2022-10-18T02:12:36.231Z,24.35
2022-10-18T02:15:00.951Z,28.05
2022-10-18T02:17:28.230Z,22.98
2022-10-18T02:19:57.089Z,23.90
2022-10-18T02:22:21.496Z,25.27
2022-10-18T02:24:49.915Z,25.23
2022-10-18T02:27:14.275Z,28.73
2022-10-18T02:29:38.425Z,22.88
2022-10-18T02:32:11.392Z,23.65
2022-10-18T02:34:40.997Z,23.52
2022-10-18T02:37:06.562Z,25.77
2022-10-18T02:39:34.344Z,25.38
2022-10-18T02:41:59.546Z,23.50
2022-10-18T02:44:23.454Z,23.27
2022-10-18T02:46:47.964Z,22.83
2022-10-18T02:49:11.493Z,20.27
2022-10-18T02:51:35.434Z,22.50
2022-10-18T02:54:00.476Z,21.88
2022-10-18T02:56:24.008Z,21.35
2022-10-18T02:58:47.547Z,19.92
2022-10-18T03:01:11.168Z,17.15
2022-10-18T03:03:34.774Z,17.35
2022-10-18T03:05:58.358Z,17.52
2022-10-18T03:08:22.809Z,18.25
2022-10-18T03:10:48.407Z,18.65
2022-10-18T03:13:12.043Z,21.58
2022-10-18T03:15:35.566Z,16.00
2022-10-18T03:17:59.175Z,20.40
2022-10-18T03:20:23.439Z,23.40
2022-10-18T03:22:46.962Z,18.00
2022-10-18T03:25:10.788Z,18.35
2022-10-18T03:27:35.727Z,19.52
2022-10-18T03:29:59.303Z,21.88
2022-10-18T03:32:22.837Z,20.27
2022-10-18T03:34:46.387Z,20.33
2022-10-18T03:37:09.962Z,20.27
2022-10-18T03:39:33.494Z,18.20
2022-10-18T03:41:57.060Z,19.00
2022-10-18T03:44:22.028Z,23.60
2022-10-18T03:46:45.585Z,18.58
2022-10-18T03:49:09.141Z,19.98
2022-10-18T03:51:32.772Z,18.83
2022-10-18T03:53:56.372Z,19.98
2022-10-18T03:56:19.940Z,19.73
2022-10-18T03:58:43.498Z,24.42
2022-10-18T04:01:08.461Z,18.75
2022-10-18T04:03:32.027Z,17.15
2022-10-18T04:05:55.610Z,20.20
2022-10-18T04:08:19.827Z,16.80
2022-10-18T04:10:44.099Z,21.63
2022-10-18T04:13:08.238Z,21.42
2022-10-18T04:15:31.826Z,19.75
2022-10-18T04:17:56.902Z,19.95
2022-10-18T04:20:20.689Z,20.83
2022-10-18T04:22:44.279Z,26.63
2022-10-18T04:25:08.583Z,22.08
2022-10-18T04:27:32.488Z,21.67
2022-10-18T04:29:56.320Z,23.27
2022-10-18T04:32:19.865Z,21.30
2022-10-18T04:34:44.768Z,30.30
2022-10-18T04:37:08.387Z,31.55
2022-10-18T04:39:32.024Z,27.75
2022-10-18T04:41:55.599Z,23.85
2022-10-18T04:44:19.163Z,29.20
2022-10-18T04:46:42.707Z,35.58
2022-10-18T04:49:06.261Z,34.13
2022-10-18T04:51:31.418Z,40.65
2022-10-18T04:53:55.021Z,32.80
2022-10-18T04:56:18.619Z,30.75
2022-10-18T04:58:42.166Z,23.35
2022-10-18T05:01:07.620Z,32.67
2022-10-18T05:03:31.126Z,27.55
2022-10-18T05:06:01.844Z,39.28
2022-10-18T05:08:27.982Z,29.83
2022-10-18T05:10:51.473Z,34.45
2022-10-18T05:13:15.196Z,38.95
2022-10-18T05:15:38.727Z,41.95
2022-10-18T05:18:02.330Z,35.78
2022-10-18T05:20:25.864Z,47.00
2022-10-18T05:22:49.450Z,46.97
2022-10-18T05:25:14.334Z,46.92
2022-10-18T05:27:38.080Z,41.78
2022-10-18T05:30:04.685Z,47.50
2022-10-18T05:32:29.591Z,39.33
2022-10-18T05:34:53.304Z,52.03
2022-10-18T05:37:16.892Z,49.88
2022-10-18T05:39:40.507Z,40.55
2022-10-18T05:42:05.706Z,54.10
2022-10-18T05:44:29.225Z,39.92
2022-10-18T05:46:52.783Z,54.00
2022-10-18T05:49:16.615Z,45.20
2022-10-18T05:51:40.232Z,47.83
2022-10-18T05:54:03.741Z,87.10
2022-10-18T05:56:27.477Z,47.72
2022-10-18T05:58:53.695Z,42.45
2022-10-18T06:01:17.238Z,43.03
2022-10-18T06:03:40.879Z,55.97
2022-10-18T06:06:08.028Z,34.65
2022-10-18T06:08:32.215Z,79.03
2022-10-18T06:10:55.965Z,58.30
2022-10-18T06:13:19.462Z,45.92
2022-10-18T06:15:44.383Z,78.90
2022-10-18T06:18:07.901Z,72.05
2022-10-18T06:20:31.484Z,43.60
2022-10-18T06:22:55.484Z,170.40
2022-10-18T06:25:19.111Z,62.63
2022-10-18T06:27:42.639Z,55.50
2022-10-18T06:30:07.675Z,88.82
2022-10-18T06:32:32.567Z,53.20
2022-10-18T06:34:56.170Z,45.45
2022-10-18T06:37:19.724Z,75.78
2022-10-18T06:39:43.360Z,47.60
2022-10-18T06:42:06.872Z,49.13
2022-10-18T06:44:31.562Z,57.47
2022-10-18T06:46:55.126Z,45.45
2022-10-18T06:49:20.329Z,55.47
2022-10-18T06:51:46.226Z,41.15
2022-10-18T06:54:18.798Z,74.70
2022-10-18T06:56:42.674Z,60.53
2022-10-18T06:59:06.796Z,74.55
2022-10-18T07:01:30.496Z,55.70
2022-10-18T07:03:54.926Z,60.42
2022-10-18T07:06:21.201Z,43.42
2022-10-18T07:08:45.158Z,54.03
2022-10-18T07:11:10.418Z,68.82
2022-10-18T07:13:35.479Z,55.03
2022-10-18T07:16:05.689Z,59.40
2022-10-18T07:18:29.428Z,70.57
2022-10-18T07:20:52.951Z,67.80
2022-10-18T07:23:18.591Z,48.50
2022-10-18T07:25:42.114Z,49.88
2022-10-18T07:28:05.988Z,59.50
2022-10-18T07:30:29.510Z,45.47
2022-10-18T07:32:53.224Z,46.10
2022-10-18T07:35:17.108Z,34.42
2022-10-18T07:37:40.658Z,33.55
2022-10-18T07:40:06.553Z,31.20
2022-10-18T07:42:30.118Z,30.48
2022-10-18T07:44:53.663Z,22.80
2022-10-18T07:47:17.315Z,33.03
2022-10-18T07:49:40.910Z,37.20
2022-10-18T07:52:04.670Z,23.35
2022-10-18T07:54:28.230Z,32.17
2022-10-18T07:56:53.216Z,22.35
2022-10-18T07:59:16.775Z,25.98
2022-10-18T08:01:40.388Z,32.67
2022-10-18T08:04:07.812Z,40.63
2022-10-18T08:06:32.586Z,32.17
2022-10-18T08:08:56.090Z,29.73
2022-10-18T08:11:22.611Z,36.55
2022-10-18T08:13:49.144Z,49.90
2022-10-18T08:16:14.810Z,46.72
2022-10-18T08:18:39.691Z,36.50
2022-10-18T08:21:03.679Z,34.42
2022-10-18T08:23:27.291Z,53.45
2022-10-18T08:25:50.831Z,38.80
2022-10-18T08:28:14.605Z,33.63
2022-10-18T08:30:39.569Z,48.10
2022-10-18T08:33:03.371Z,60.33
2022-10-18T08:35:26.972Z,41.85
2022-10-18T08:37:51.290Z,36.35
2022-10-18T08:40:15.878Z,52.92
2022-10-18T08:43:03.769Z,37.40
2022-10-18T08:45:41.980Z,55.13
2022-10-18T08:48:08.995Z,46.47
2022-10-18T08:50:36.898Z,61.90
2022-10-18T08:53:05.655Z,47.22
2022-10-18T08:55:36.498Z,42.33
2022-10-18T08:58:00.070Z,40.17
2022-10-18T09:00:27.122Z,43.38
2022-10-18T09:03:13.349Z,48.42
2022-10-18T09:05:47.008Z,44.58
2022-10-18T09:08:37.977Z,60.40
2022-10-18T09:11:13.345Z,73.53
2022-10-18T09:14:14.382Z,44.67
2022-10-18T09:16:47.246Z,40.88
2022-10-18T09:19:22.884Z,33.42
2022-10-18T09:21:53.663Z,42.53
2022-10-18T09:24:27.110Z,38.60
2022-10-18T09:26:55.924Z,35.40
2022-10-18T09:29:40.806Z,32.85
2022-10-18T09:32:19.769Z,36.35
2022-10-18T09:34:52.302Z,40.53
2022-10-18T09:37:20.651Z,34.90
2022-10-18T09:39:44.486Z,37.80
2022-10-18T09:42:17.961Z,40.17
2022-10-18T09:44:46.182Z,46.53
2022-10-18T09:47:16.863Z,44.53
2022-10-18T09:49:47.451Z,38.33
2022-10-18T09:52:20.075Z,41.30
2022-10-18T09:54:49.090Z,38.05
2022-10-18T09:57:20.512Z,38.72
2022-10-18T09:59:45.807Z,36.17
2022-10-18T10:02:14.936Z,42.28
2022-10-18T10:04:38.586Z,35.03
2022-10-18T10:07:03.983Z,35.63
2022-10-18T10:09:30.799Z,34.50
2022-10-18T10:11:55.496Z,36.20
2022-10-18T10:14:23.204Z,26.73
2022-10-18T10:16:51.893Z,29.50
2022-10-18T10:19:30.271Z,26.95
2022-10-18T10:22:03.554Z,42.67
2022-10-18T10:24:36.051Z,40.20
2022-10-18T10:27:06.091Z,53.22
2022-10-18T10:30:05.740Z,34.47
2022-10-18T10:32:33.784Z,37.55
2022-10-18T10:34:57.572Z,40.55
2022-10-18T10:37:33.352Z,36.97
2022-10-18T10:40:25.276Z,37.60
2022-10-18T10:43:18.436Z,27.75
2022-10-18T10:46:03.212Z,34.47
2022-10-18T10:48:33.020Z,24.48
2022-10-18T10:51:05.783Z,26.85
2022-10-18T10:53:36.963Z,32.72
2022-10-18T10:56:01.186Z,30.50
2022-10-18T10:58:25.322Z,41.83
2022-10-18T11:00:48.905Z,42.90
2022-10-18T11:03:28.647Z,31.08
2022-10-18T11:05:57.769Z,28.42
2022-10-18T11:08:25.011Z,28.90
2022-10-18T11:11:06.472Z,35.58
2022-10-18T11:13:47.486Z,39.10
2022-10-18T11:16:18.884Z,32.47
2022-10-18T11:18:45.427Z,25.98
2022-10-18T11:21:13.318Z,22.17
2022-10-18T11:23:39.602Z,20.67
2022-10-18T11:26:40.874Z,24.42
2022-10-18T11:29:32.470Z,26.98
2022-10-18T11:32:11.072Z,37.38
2022-10-18T11:35:01.573Z,29.27
2022-10-18T11:37:46.040Z,53.03
2022-10-18T11:40:29.414Z,40.45
2022-10-18T11:43:04.053Z,59.42
2022-10-18T11:45:38.536Z,57.40
2022-10-18T11:48:17.935Z,70.32
2022-10-18T11:50:50.559Z,48.65
2022-10-18T11:53:26.088Z,25.40
2022-10-18T11:56:04.151Z,25.48
2022-10-18T11:58:47.317Z,26.83
2022-10-18T12:01:27.666Z,44.78
2022-10-18T12:04:01.487Z,27.33
2022-10-18T12:06:30.723Z,27.85
2022-10-18T12:08:59.659Z,26.08
2022-10-18T12:11:30.853Z,20.17
2022-10-18T12:13:59.818Z,25.63
2022-10-18T12:16:49.446Z,19.40
2022-10-18T12:19:23.503Z,25.40
2022-10-18T12:21:50.714Z,37.33
2022-10-18T12:24:19.214Z,26.90
2022-10-18T12:26:42.995Z,24.60
2022-10-18T12:29:28.722Z,21.48
2022-10-18T12:31:54.865Z,23.58
2022-10-18T12:34:31.655Z,28.23
2022-10-18T12:37:37.214Z,24.02
2022-10-18T12:40:10.470Z,25.48
2022-10-18T12:42:44.355Z,20.20
2022-10-18T12:45:30.176Z,37.95
2022-10-18T12:47:54.260Z,22.98
2022-10-18T12:50:32.571Z,19.33
2022-10-18T12:53:07.100Z,16.15
2022-10-18T12:55:33.772Z,21.70
2022-10-18T12:58:27.723Z,21.20
2022-10-18T13:01:10.449Z,19.10
2022-10-18T13:04:00.934Z,17.55
2022-10-18T13:06:25.383Z,18.15
2022-10-18T13:08:55.062Z,20.75
2022-10-18T13:11:39.471Z,19.75
2022-10-18T13:15:05.912Z,17.30
2022-10-18T13:17:47.123Z,19.45
2022-10-18T13:20:27.212Z,22.33
2022-10-18T13:23:09.233Z,18.15
2022-10-18T13:25:49.029Z,19.95
2022-10-18T13:28:26.841Z,51.33
2022-10-18T13:30:56.975Z,20.45
2022-10-18T13:33:33.180Z,18.73
2022-10-18T13:35:58.670Z,15.27
2022-10-18T13:38:59.294Z,17.80
2022-10-18T13:44:28.199Z,15.80
2022-10-18T13:47:14.119Z,23.33
2022-10-18T13:50:04.751Z,19.50
2022-10-18T13:52:42.173Z,16.90
2022-10-18T13:55:30.839Z,16.92
2022-10-18T13:58:06.600Z,20.40
2022-10-18T14:00:49.080Z,20.83
2022-10-18T14:03:57.586Z,23.13
2022-10-18T14:06:25.861Z,19.48
2022-10-18T14:08:59.136Z,18.20
2022-10-18T14:11:34.301Z,19.73
2022-10-18T14:14:05.600Z,20.15
2022-10-18T14:16:37.925Z,21.95
2022-10-18T14:19:15.439Z,23.55
2022-10-18T14:21:47.308Z,23.30
2022-10-18T14:24:20.535Z,21.88
2022-10-18T14:26:44.096Z,23.40
2022-10-18T14:29:18.334Z,20.85
2022-10-18T14:31:42.170Z,24.20
2022-10-18T14:34:05.740Z,26.15
2022-10-18T14:36:37.063Z,21.27
2022-10-18T14:39:04.753Z,22.63
2022-10-18T14:41:30.595Z,22.10
2022-10-18T14:44:12.846Z,24.35
2022-10-18T14:46:43.057Z,21.15
2022-10-18T14:49:07.914Z,24.25
2022-10-18T14:51:37.208Z,25.85
2022-10-18T14:54:02.493Z,20.88
2022-10-18T14:56:30.738Z,18.90
2022-10-18T14:58:55.920Z,19.38
2022-10-18T15:01:22.061Z,20.23
2022-10-18T15:03:46.697Z,20.45
2022-10-18T15:06:13.331Z,22.42
2022-10-18T15:08:40.465Z,17.42
2022-10-18T15:11:08.258Z,19.67
2022-10-18T15:13:36.187Z,19.92
2022-10-18T15:16:00.653Z,23.33
2022-10-18T15:18:27.024Z,26.00
2022-10-18T15:21:10.232Z,23.70
2022-10-18T15:23:33.864Z,24.83
2022-10-18T15:26:06.086Z,19.35
2022-10-18T15:28:32.820Z,20.27
2022-10-18T15:30:58.391Z,20.92
2022-10-18T15:33:25.250Z,26.33
2022-10-18T15:35:48.882Z,23.92
2022-10-18T15:38:18.576Z,20.55
2022-10-18T15:40:43.940Z,20.38
2022-10-18T15:43:39.479Z,20.40
2022-10-18T15:46:07.087Z,26.33
2022-10-18T15:48:36.196Z,30.17
2022-10-18T15:51:04.730Z,21.40
2022-10-18T15:53:45.075Z,26.05
2022-10-18T15:56:13.110Z,21.55
2022-10-18T15:58:44.114Z,28.35
2022-10-18T16:01:17.110Z,26.48
2022-10-18T16:03:41.067Z,30.63
2022-10-18T16:06:08.704Z,32.03
2022-10-18T16:08:37.073Z,21.48
2022-10-18T16:11:01.249Z,20.70
2022-10-18T16:13:25.030Z,23.15
2022-10-18T16:15:50.023Z,30.40
2022-10-18T16:18:18.083Z,19.88
2022-10-18T16:20:41.638Z,22.80
2022-10-18T16:23:18.771Z,28.92
2022-10-18T16:25:42.430Z,19.67
2022-10-18T16:28:06.843Z,22.55
2022-10-18T16:30:35.991Z,22.00
2022-10-18T16:33:01.954Z,25.83
2022-10-18T16:35:25.666Z,25.00
2022-10-18T16:37:49.235Z,27.50
2022-10-18T16:40:25.084Z,22.38
2022-10-18T16:42:48.707Z,21.88
2022-10-18T16:45:12.237Z,39.35
2022-10-18T16:47:35.827Z,35.65
2022-10-18T16:50:06.463Z,26.25
2022-10-18T16:52:30.777Z,32.55
2022-10-18T16:54:54.482Z,22.27
2022-10-18T16:57:18.084Z,29.83
2022-10-18T16:59:41.619Z,23.38
2022-10-18T17:02:09.026Z,26.48
2022-10-18T17:04:32.627Z,35.42
2022-10-18T17:06:59.523Z,37.55
2022-10-18T17:09:23.133Z,42.35
2022-10-18T17:11:46.808Z,49.97
2022-10-18T17:14:10.413Z,29.73
2022-10-18T17:16:37.263Z,25.42
2022-10-18T17:19:04.927Z,40.95
2022-10-18T17:21:30.437Z,68.60
2022-10-18T17:23:57.492Z,39.05
2022-10-18T17:26:29.356Z,23.90
2022-10-18T17:28:55.070Z,26.00
2022-10-18T17:31:18.656Z,28.08
2022-10-18T17:33:42.490Z,35.13
2022-10-18T17:36:07.753Z,41.85
2022-10-18T17:38:31.410Z,41.75
2022-10-18T17:40:57.141Z,43.40
2022-10-18T17:43:20.785Z,31.50
2022-10-18T17:45:49.255Z,27.20
2022-10-18T17:48:13.698Z,37.55
2022-10-18T17:50:41.235Z,32.50
2022-10-18T17:53:04.811Z,25.75
2022-10-18T17:55:30.131Z,34.15
2022-10-18T17:57:55.127Z,29.45
2022-10-18T18:00:18.709Z,28.33
2022-10-18T18:02:42.637Z,27.25
2022-10-18T18:05:07.336Z,45.65
2022-10-18T18:07:30.952Z,26.15
2022-10-18T18:09:54.537Z,49.28
2022-10-18T18:12:18.209Z,39.00
2022-10-18T18:14:43.202Z,30.52
2022-10-18T18:17:06.818Z,46.35
2022-10-18T18:19:30.307Z,46.72
2022-10-18T18:21:55.094Z,47.00
2022-10-18T18:24:24.582Z,55.05
2022-10-18T18:26:48.174Z,44.22
2022-10-18T18:29:13.993Z,52.13
2022-10-18T18:31:43.463Z,49.75
2022-10-18T18:34:07.385Z,76.43
2022-10-18T18:36:32.498Z,63.08
2022-10-18T18:38:57.788Z,36.08
2022-10-18T18:41:23.826Z,35.47
2022-10-18T18:43:51.755Z,41.42
2022-10-18T18:46:15.299Z,39.88
2022-10-18T18:48:41.322Z,31.60
2022-10-18T18:51:06.701Z,29.58
2022-10-18T18:53:30.674Z,27.67
2022-10-18T18:55:54.222Z,30.00
2022-10-18T18:58:18.137Z,37.15
2022-10-18T19:00:44.458Z,32.45
2022-10-18T19:03:08.625Z,41.65
2022-10-18T19:05:33.886Z,33.70
2022-10-18T19:07:57.424Z,31.92
2022-10-18T19:10:20.979Z,35.55
2022-10-18T19:12:44.531Z,44.38
2022-10-18T19:15:09.483Z,43.63
2022-10-18T19:17:33.239Z,37.63
2022-10-18T19:19:58.882Z,35.97
2022-10-18T19:22:23.854Z,32.45
2022-10-18T19:24:47.402Z,35.25
2022-10-18T19:27:12.595Z,27.33
2022-10-18T19:29:38.482Z,44.40
2022-10-18T19:32:04.419Z,38.83
2022-10-18T19:34:30.298Z,39.80
2022-10-18T19:36:54.081Z,38.00
2022-10-18T19:39:21.142Z,36.47
2022-10-18T19:41:44.700Z,40.75
2022-10-18T19:44:08.799Z,31.05
2022-10-18T19:46:32.383Z,28.85
2022-10-18T19:48:55.945Z,34.55
2022-10-18T19:51:21.927Z,35.42
2022-10-18T19:53:48.975Z,42.42
2022-10-18T19:56:20.969Z,40.17
2022-10-18T19:58:44.557Z,46.63
2022-10-18T20:01:08.101Z,37.83
2022-10-18T20:03:31.772Z,34.08
2022-10-18T20:05:59.289Z,38.90
2022-10-18T20:08:22.933Z,26.92
2022-10-18T20:10:46.459Z,46.60
2022-10-18T20:13:11.451Z,65.30
2022-10-18T20:15:34.990Z,36.42
2022-10-18T20:17:58.712Z,29.33
2022-10-18T20:20:22.280Z,40.05
2022-10-18T20:22:45.942Z,37.63
2022-10-18T20:25:10.557Z,42.30
2022-10-18T20:27:34.691Z,33.00
2022-10-18T20:29:59.865Z,37.83
2022-10-18T20:32:23.423Z,44.30
2022-10-18T20:34:46.954Z,35.10
2022-10-18T20:37:10.527Z,38.65
2022-10-18T20:39:35.262Z,44.13
2022-10-18T20:41:58.911Z,44.42
2022-10-18T20:44:22.697Z,40.75
2022-10-18T20:46:47.967Z,44.08
2022-10-18T20:49:15.990Z,42.38
2022-10-18T20:51:39.865Z,32.03
2022-10-18T20:56:31.580Z,41.58
2022-10-18T20:58:57.457Z,32.15
2022-10-18T21:01:24.578Z,37.67
2022-10-18T21:03:51.463Z,31.85
2022-10-18T21:06:17.542Z,40.70
2022-10-18T21:08:41.549Z,25.45
2022-10-18T21:11:05.675Z,26.75
2022-10-18T21:13:29.238Z,36.97
2022-10-18T21:15:56.368Z,38.30
2022-10-18T21:18:19.890Z,21.42
2022-10-18T21:20:44.857Z,21.67
2022-10-18T21:23:08.351Z,30.77
2022-10-18T21:25:31.956Z,28.50
2022-10-18T21:27:55.454Z,23.02
2022-10-18T21:30:19.135Z,29.85
2022-10-18T21:32:42.655Z,25.95
2022-10-18T21:35:07.628Z,28.85
2022-10-18T21:37:32.556Z,26.58
2022-10-18T21:39:56.162Z,27.65
2022-10-18T21:42:19.658Z,27.33
2022-10-18T21:44:43.286Z,27.13
2022-10-18T21:47:06.828Z,28.67
2022-10-18T21:49:35.053Z,32.60
2022-10-18T21:51:58.593Z,26.98
2022-10-18T21:54:23.632Z,20.67
2022-10-18T21:56:47.231Z,21.23
2022-10-18T21:59:13.230Z,24.13
2022-10-18T22:01:39.755Z,16.95
2022-10-18T22:04:06.740Z,24.58
2022-10-18T22:09:06.127Z,25.00
2022-10-18T22:11:34.689Z,28.60
2022-10-18T22:13:58.601Z,20.52
2022-10-18T22:16:22.995Z,24.55
2022-10-18T22:18:49.407Z,19.38
2022-10-18T22:21:16.392Z,25.67
2022-10-18T22:23:42.711Z,19.90
2022-10-18T22:26:08.202Z,20.38
2022-10-18T22:28:33.178Z,22.05
2022-10-18T22:30:56.699Z,27.60
2022-10-18T22:33:20.262Z,25.85
2022-10-18T22:35:43.750Z,21.08
2022-10-18T22:38:07.318Z,21.92
2022-10-18T22:40:30.872Z,23.52
2022-10-18T22:42:54.481Z,18.00
2022-10-18T22:45:19.514Z,26.75
2022-10-18T22:47:43.111Z,18.77
2022-10-18T22:50:07.810Z,19.33
2022-10-18T22:52:31.655Z,17.67
2022-10-18T22:54:55.427Z,14.00
2022-10-18T22:57:18.987Z,12.32
2022-10-18T22:59:42.486Z,20.58
2022-10-18T23:02:07.454Z,18.05
2022-10-18T23:04:30.995Z,20.00
2022-10-18T23:06:54.585Z,17.70
2022-10-18T23:09:18.094Z,15.88
2022-10-18T23:11:41.726Z,20.80
2022-10-18T23:14:06.578Z,21.63
2022-10-18T23:16:30.212Z,24.98
2022-10-18T23:18:57.257Z,19.60
2022-10-18T23:21:23.744Z,18.77
2022-10-18T23:23:47.587Z,20.77
2022-10-18T23:26:14.686Z,21.23
2022-10-18T23:28:40.758Z,22.30
2022-10-18T23:31:09.990Z,20.42
2022-10-18T23:33:33.495Z,20.73
2022-10-18T23:36:00.083Z,23.05
2022-10-18T23:38:23.641Z,18.20
2022-10-18T23:40:47.211Z,23.65
2022-10-18T23:43:10.724Z,22.92
2022-10-18T23:45:34.345Z,16.35
2022-10-18T23:47:57.880Z,16.52
2022-10-18T23:50:21.546Z,17.48
2022-10-18T23:52:46.451Z,23.58
2022-10-18T23:55:10.598Z,16.90
2022-10-18T23:57:34.450Z,22.90
2022-10-18T23:59:58.225Z,22.13
